Teddy Meyer — WDF9635 — position and weather

sailwx.info

Track history (hours):
 
Tides and Currents Weather Stations Pressure Air Temp Water Temp Dewpoint Dewpoint Depression Visibility Wind Speed Wind Dir Waves Ship Positions

Teddy Meyer

Owner: LeBeouf Bros. Towing, LLC, Houma, LA. More information available from US FCC via Universal Licensing System and Coast Guard Vessel Documentation Center.

Last reported at 2017-Nov-19 18:00 UTC. Time now 2017-Nov-19 20:10 UTC.
Position N 29°42' W 095°03'.

; draft 3 m.

MMSI: 367507220.

Date/timePositionNaut miles runAvg speedWind from/ knotsBaromVisibWave heightAir tempDewpointWater temp
2017-Nov-19 18:00N 29°42' W 095°03'0 0.3
2017-Nov-19 17:30N 29°43' W 095°03'0 0.3
2017-Nov-19 16:55N 29°42' W 095°03'0 0.0
2017-Nov-19 16:29N 29°42' W 095°03'0 0.2
2017-Nov-19 15:58N 29°42' W 095°03'1 1.5
2017-Nov-19 15:23N 29°42' W 095°02'2 3.6
2017-Nov-19 14:53N 29°42' W 094°60'3 6.6
2017-Nov-19 14:30N 29°40' W 094°58'4 7.6
2017-Nov-19 13:59N 29°36' W 094°57'4 7.7
2017-Nov-19 13:30N 29°33' W 094°54'75 4.2
2017-Nov-18 19:25N 30°04' W 093°35'2 4.3
2017-Nov-18 18:57N 30°04' W 093°33'2 4.3
2017-Nov-18 18:30N 30°04' W 093°30'2 4.3
2017-Nov-18 18:01N 30°04' W 093°28'2 4.4
2017-Nov-18 17:30N 30°04' W 093°25'2 4.4
2017-Nov-18 17:00N 30°04' W 093°23'2 3.2
2017-Nov-18 16:30N 30°04' W 093°21'2 3.0
2017-Nov-18 16:00N 30°05' W 093°20'3 5.9
2017-Nov-18 15:30N 30°08' W 093°20'0 0.3
2017-Nov-18 15:00N 30°08' W 093°20'0 0.9
2017-Nov-18 14:31N 30°08' W 093°19'0 0.0
2017-Nov-18 14:00N 30°08' W 093°19'0 0.0
2017-Nov-18 13:30N 30°08' W 093°19'0 0.0
2017-Nov-18 13:00N 30°08' W 093°19'0 0.0
2017-Nov-18 12:30N 30°08' W 093°19'0 0.0
2017-Nov-18 12:00N 30°08' W 093°19'0 0.0
2017-Nov-18 11:30N 30°08' W 093°19'0 0.0
2017-Nov-18 11:00N 30°08' W 093°19'0 0.0
2017-Nov-18 10:31N 30°08' W 093°19'0 0.0
2017-Nov-18 10:00N 30°08' W 093°19'0 0.0
2017-Nov-18 09:30N 30°08' W 093°19'0 0.0
2017-Nov-18 09:00N 30°08' W 093°19'0 0.0
2017-Nov-18 08:31N 30°08' W 093°19'0 0.0
2017-Nov-18 08:00N 30°08' W 093°19'0 0.0
2017-Nov-18 07:30N 30°08' W 093°19'0 0.0
2017-Nov-18 07:00N 30°08' W 093°19'0 0.0
2017-Nov-18 06:30N 30°08' W 093°19'0 0.0
2017-Nov-18 06:01N 30°08' W 093°19'0 0.0
2017-Nov-18 05:30N 30°08' W 093°19'0 0.0
2017-Nov-18 05:00N 30°08' W 093°19'0 0.0
2017-Nov-18 04:30N 30°08' W 093°19'0 0.0
2017-Nov-18 04:01N 30°08' W 093°19'0 0.0
2017-Nov-18 03:30N 30°08' W 093°19'0 0.0
2017-Nov-18 03:01N 30°08' W 093°19'0 0.0
2017-Nov-18 02:30N 30°08' W 093°19'0 0.0
2017-Nov-18 02:00N 30°08' W 093°19'0 0.0
2017-Nov-18 01:30N 30°08' W 093°19'0 0.0
2017-Nov-18 01:00N 30°08' W 093°19'0 0.0
2017-Nov-18 00:30N 30°08' W 093°19'0 0.0
2017-Nov-18 00:01N 30°08' W 093°19'0 0.0
2017-Nov-17 23:30N 30°08' W 093°19'0 0.0
2017-Nov-17 23:00N 30°08' W 093°19'0 0.0
2017-Nov-17 22:31N 30°08' W 093°19'0 0.0
2017-Nov-17 22:01N 30°08' W 093°19'0 0.0
2017-Nov-17 21:30N 30°08' W 093°19'0 0.0
2017-Nov-17 21:00N 30°08' W 093°19'0 0.0
2017-Nov-17 20:30N 30°08' W 093°19'0 0.0
2017-Nov-17 20:00N 30°08' W 093°19'0 0.0
2017-Nov-17 19:30N 30°08' W 093°19'0 0.0
2017-Nov-17 19:01N 30°08' W 093°19'0 0.0
2017-Nov-17 18:30N 30°08' W 093°19'0 0.0
2017-Nov-17 18:01N 30°08' W 093°19'0 0.0
2017-Nov-17 17:30N 30°08' W 093°19'0 0.0
2017-Nov-17 17:01N 30°08' W 093°19'0 0.0
2017-Nov-17 16:31N 30°08' W 093°19'0 0.0
2017-Nov-17 16:00N 30°08' W 093°19'1 1.6
2017-Nov-17 15:30N 30°09' W 093°20'0 0.2
2017-Nov-17 15:01N 30°09' W 093°20'0 0.1
2017-Nov-17 14:31N 30°09' W 093°20'2 4.5
2017-Nov-17 14:01N 30°11' W 093°19'3 5.4
2017-Nov-17 13:30N 30°12' W 093°16'0 0.0
2017-Nov-17 13:00N 30°12' W 093°16'0 0.0
2017-Nov-17 12:30N 30°12' W 093°16'0 0.0
2017-Nov-17 12:01N 30°12' W 093°16'0 0.0
2017-Nov-17 11:31N 30°12' W 093°16'0 0.0
2017-Nov-17 11:00N 30°12' W 093°16'0 0.0
2017-Nov-17 10:30N 30°12' W 093°16'0 0.0
2017-Nov-17 10:00N 30°12' W 093°16'0 0.0
2017-Nov-17 09:30N 30°12' W 093°16'0 0.0
2017-Nov-17 09:00N 30°12' W 093°16'0 0.0
2017-Nov-17 08:30N 30°12' W 093°16'0 0.0
2017-Nov-17 08:00N 30°12' W 093°16'0 0.0
2017-Nov-17 07:30N 30°12' W 093°16'0 0.0
2017-Nov-17 07:00N 30°12' W 093°16'0 0.0
2017-Nov-17 06:30N 30°12' W 093°16'0 0.0
2017-Nov-17 06:00N 30°12' W 093°16'0 0.0
2017-Nov-17 05:30N 30°12' W 093°16'0 0.0
2017-Nov-17 05:00N 30°12' W 093°16'0 0.0
2017-Nov-17 04:30N 30°12' W 093°16'0 0.0
2017-Nov-17 04:00N 30°12' W 093°16'0 0.0
2017-Nov-17 03:30N 30°12' W 093°16'0 0.0
2017-Nov-17 03:00N 30°12' W 093°16'0 0.0
2017-Nov-17 02:31N 30°12' W 093°16'0 0.0
2017-Nov-17 02:00N 30°12' W 093°16'0 0.0
2017-Nov-17 01:30N 30°12' W 093°16'0 0.0
2017-Nov-17 01:00N 30°12' W 093°16'0 0.0
2017-Nov-17 00:31N 30°12' W 093°16'0 0.0
2017-Nov-17 00:01N 30°12' W 093°16'0 0.0
2017-Nov-16 23:30N 30°12' W 093°16'0 0.0
2017-Nov-16 23:00N 30°12' W 093°16'0 0.0
2017-Nov-16 22:30N 30°12' W 093°16'0 0.0
2017-Nov-16 22:00N 30°12' W 093°16'0 0.0
2017-Nov-16 21:30N 30°12' W 093°16'0 0.0
2017-Nov-16 21:01N 30°12' W 093°16'0 0.0
2017-Nov-16 20:30N 30°12' W 093°16'0 0.0
2017-Nov-16 20:01N 30°12' W 093°16'0 0.0
2017-Nov-16 19:30N 30°12' W 093°16'0 0.0
2017-Nov-16 19:01N 30°12' W 093°16'0 0.0
2017-Nov-16 18:30N 30°12' W 093°16'0 0.0
2017-Nov-16 18:00N 30°12' W 093°16'0 0.0
2017-Nov-16 17:31N 30°12' W 093°16'0 0.0
2017-Nov-16 17:00N 30°12' W 093°16'0 0.0
2017-Nov-16 16:30N 30°12' W 093°16'0 0.0
2017-Nov-16 16:00N 30°12' W 093°16'0 0.0
2017-Nov-16 15:30N 30°12' W 093°16'0 0.0
2017-Nov-16 15:00N 30°12' W 093°16'0 0.0
2017-Nov-16 14:30N 30°12' W 093°16'0 0.0
2017-Nov-16 14:00N 30°12' W 093°16'0 0.0
2017-Nov-16 13:30N 30°12' W 093°16'0 0.0
2017-Nov-16 13:00N 30°12' W 093°16'0 0.0
2017-Nov-16 12:30N 30°12' W 093°16'0 0.0
2017-Nov-16 12:00N 30°12' W 093°16'0 0.0
2017-Nov-16 11:30N 30°12' W 093°16'0 0.0
2017-Nov-16 11:00N 30°12' W 093°16'0 0.0
2017-Nov-16 10:30N 30°12' W 093°16'0 0.0
2017-Nov-16 10:00N 30°12' W 093°16'0 0.0
2017-Nov-16 09:30N 30°12' W 093°16'0 0.0
2017-Nov-16 09:00N 30°12' W 093°16'0 0.0
2017-Nov-16 08:30N 30°12' W 093°16'0 0.0
2017-Nov-16 08:00N 30°12' W 093°16'0 0.0
2017-Nov-16 07:30N 30°12' W 093°16'0 0.0
2017-Nov-16 07:00N 30°12' W 093°16'0 0.0
2017-Nov-16 06:30N 30°12' W 093°16'0 0.0
2017-Nov-16 06:00N 30°12' W 093°16'0 0.0
2017-Nov-16 05:30N 30°12' W 093°16'0 0.0
2017-Nov-16 05:00N 30°12' W 093°16'0 0.0
2017-Nov-16 04:30N 30°12' W 093°16'0 0.0
2017-Nov-16 04:00N 30°12' W 093°16'0 0.0
2017-Nov-16 03:30N 30°12' W 093°16'0 0.0
2017-Nov-16 03:00N 30°12' W 093°16'0 0.0
2017-Nov-16 02:30N 30°12' W 093°16'0 0.0
2017-Nov-16 02:00N 30°12' W 093°16'0 0.0
2017-Nov-16 01:31N 30°12' W 093°16'0 0.0
2017-Nov-16 01:00N 30°12' W 093°16'0 0.0
2017-Nov-16 00:30N 30°12' W 093°16'0 0.0
2017-Nov-16 00:00N 30°12' W 093°16'0 0.0
2017-Nov-15 23:31N 30°12' W 093°16'0 0.0
2017-Nov-15 23:01N 30°12' W 093°16'0 0.0
2017-Nov-15 22:30N 30°12' W 093°16'0 0.0
2017-Nov-15 22:01N 30°12' W 093°16'0 0.0
2017-Nov-15 21:30N 30°12' W 093°16'0 0.0
2017-Nov-15 21:01N 30°12' W 093°16'3 6.2
2017-Nov-15 20:31N 30°10' W 093°19'4 7.0
2017-Nov-15 20:00N 30°07' W 093°20'3 5.7
2017-Nov-15 19:31N 30°04' W 093°21'3 5.3
2017-Nov-15 19:00N 30°04' W 093°24'3 6.2
2017-Nov-15 18:30N 30°04' W 093°27'3 6.3
2017-Nov-15 18:00N 30°04' W 093°31'3 6.4
2017-Nov-15 17:30N 30°04' W 093°35'3 6.3
2017-Nov-15 17:00N 30°04' W 093°38'5 6.2
2017-Nov-15 16:16N 30°03' W 093°43'3 6.8
2017-Nov-15 15:50N 30°01' W 093°46'6 7.1
2017-Nov-15 15:00N 29°58' W 093°51'60 5.3
2017-Nov-15 03:48N 29°30' W 094°52'2 8.0
2017-Nov-15 03:30N 29°32' W 094°54'4 7.7
2017-Nov-15 03:00N 29°35' W 094°56'4 7.7
2017-Nov-15 02:30N 29°38' W 094°58'4 7.6
2017-Nov-15 02:00N 29°42' W 094°60'3 6.2
2017-Nov-15 01:29N 29°44' W 095°03'0 0.0
2017-Nov-14 05:06N 29°44' W 095°03'0 0.0
2017-Nov-14 05:00N 29°44' W 095°03'0 0.5
2017-Nov-14 04:30N 29°44' W 095°03'0 0.4
2017-Nov-14 04:00N 29°44' W 095°03'0 0.0
2017-Nov-14 03:30N 29°44' W 095°03'0 0.0
2017-Nov-14 03:00N 29°44' W 095°03'0 0.0
2017-Nov-14 02:31N 29°44' W 095°03'0 0.0
2017-Nov-14 02:00N 29°44' W 095°03'0 0.0
2017-Nov-14 01:30N 29°44' W 095°03'0 0.0
2017-Nov-14 01:00N 29°44' W 095°03'0 0.0
2017-Nov-14 00:30N 29°44' W 095°03'1 1.9
2017-Nov-13 23:48N 29°44' W 095°01'1 4.4
2017-Nov-13 23:30N 29°42' W 095°01'1 2.8
2017-Nov-13 23:00N 29°43' W 095°03'1 2.1
2017-Nov-13 22:23N 29°42' W 095°01'2 6.1
2017-Nov-13 22:00N 29°44' W 095°03'  
2017-Nov-10 16:30N 30°12' W 093°16'0 0.0
2017-Nov-10 16:00N 30°12' W 093°16'0 0.0
2017-Nov-10 15:30N 30°12' W 093°16'0 0.0
2017-Nov-10 15:00N 30°12' W 093°16'0 0.0
2017-Nov-10 14:29N 30°12' W 093°16'0 0.0
2017-Nov-10 14:00N 30°12' W 093°16'0 0.0
2017-Nov-10 13:30N 30°12' W 093°16'0 0.0
2017-Nov-10 13:00N 30°12' W 093°16'0 0.0
2017-Nov-10 12:30N 30°12' W 093°16'0 0.0
2017-Nov-10 12:01N 30°12' W 093°16'0 0.0
2017-Nov-10 11:30N 30°12' W 093°16'0 0.0
2017-Nov-10 11:00N 30°12' W 093°16'0 0.0
2017-Nov-10 10:30N 30°12' W 093°16'0 0.0
2017-Nov-10 10:00N 30°12' W 093°16'0 0.0
2017-Nov-10 09:30N 30°12' W 093°16'0 0.0
2017-Nov-10 09:00N 30°12' W 093°16'0 0.0
2017-Nov-10 08:30N 30°12' W 093°16'0 0.0
2017-Nov-10 08:00N 30°12' W 093°16'0 0.0
2017-Nov-10 07:30N 30°12' W 093°16'0 0.0
2017-Nov-10 07:00N 30°12' W 093°16'0 0.0
2017-Nov-10 06:31N 30°12' W 093°16'0 0.0
2017-Nov-10 06:00N 30°12' W 093°16'0 0.0
2017-Nov-10 05:30N 30°12' W 093°16'0 0.0
2017-Nov-10 05:00N 30°12' W 093°16'0 0.0
2017-Nov-10 04:31N 30°12' W 093°16'0 0.0
2017-Nov-10 04:00N 30°12' W 093°16'0 0.0
2017-Nov-10 03:31N 30°12' W 093°16'0 0.0
2017-Nov-10 03:00N 30°12' W 093°16'0 0.0
2017-Nov-10 02:31N 30°12' W 093°16'0 0.0
2017-Nov-10 02:00N 30°12' W 093°16'0 0.0
2017-Nov-10 01:30N 30°12' W 093°16'0 0.0
2017-Nov-10 01:00N 30°12' W 093°16'0 0.0
2017-Nov-10 00:30N 30°12' W 093°16'0 0.0
2017-Nov-10 00:00N 30°12' W 093°16'0 0.0
2017-Nov-09 23:31N 30°12' W 093°16'0 0.0
2017-Nov-09 23:00N 30°12' W 093°16'0 0.0
2017-Nov-09 22:30N 30°12' W 093°16'0 0.0
2017-Nov-09 22:00N 30°12' W 093°16'0 0.0
2017-Nov-09 21:30N 30°12' W 093°16'0 0.0
2017-Nov-09 21:00N 30°12' W 093°16'0 0.0
2017-Nov-09 20:31N 30°12' W 093°16'0 0.0
2017-Nov-09 20:00N 30°12' W 093°16'0 0.0
2017-Nov-09 19:30N 30°12' W 093°16'0 0.0
2017-Nov-09 19:00N 30°12' W 093°16'0 0.0
2017-Nov-09 18:31N 30°12' W 093°16'0 0.0
2017-Nov-09 18:00N 30°12' W 093°16'  
Track history (hours):
 
Tides and Currents Weather Stations Pressure Air Temp Water Temp Dewpoint Dewpoint Depression Visibility Wind Speed Wind Dir Waves Ship Positions

Teddy Meyer

Owner: LeBeouf Bros. Towing, LLC, Houma, LA. More information available from US FCC via Universal Licensing System and Coast Guard Vessel Documentation Center.

Last reported at 2017-Nov-19 18:00 UTC. Time now 2017-Nov-19 20:10 UTC.
Position N 29°42' W 095°03'.

; draft 3 m.

MMSI: 367507220.

Date/timePositionNaut miles runAvg speedWind from/ knotsBaromVisibWave heightAir tempDewpointWater temp
2017-Nov-19 18:00N 29°42' W 095°03'0 0.3
2017-Nov-19 17:30N 29°43' W 095°03'0 0.3
2017-Nov-19 16:55N 29°42' W 095°03'0 0.0
2017-Nov-19 16:29N 29°42' W 095°03'0 0.2
2017-Nov-19 15:58N 29°42' W 095°03'1 1.5
2017-Nov-19 15:23N 29°42' W 095°02'2 3.6
2017-Nov-19 14:53N 29°42' W 094°60'3 6.6
2017-Nov-19 14:30N 29°40' W 094°58'4 7.6
2017-Nov-19 13:59N 29°36' W 094°57'4 7.7
2017-Nov-19 13:30N 29°33' W 094°54'75 4.2
2017-Nov-18 19:25N 30°04' W 093°35'2 4.3
2017-Nov-18 18:57N 30°04' W 093°33'2 4.3
2017-Nov-18 18:30N 30°04' W 093°30'2 4.3
2017-Nov-18 18:01N 30°04' W 093°28'2 4.4
2017-Nov-18 17:30N 30°04' W 093°25'2 4.4
2017-Nov-18 17:00N 30°04' W 093°23'2 3.2
2017-Nov-18 16:30N 30°04' W 093°21'2 3.0
2017-Nov-18 16:00N 30°05' W 093°20'3 5.9
2017-Nov-18 15:30N 30°08' W 093°20'0 0.3
2017-Nov-18 15:00N 30°08' W 093°20'0 0.9
2017-Nov-18 14:31N 30°08' W 093°19'0 0.0
2017-Nov-18 14:00N 30°08' W 093°19'0 0.0
2017-Nov-18 13:30N 30°08' W 093°19'0 0.0
2017-Nov-18 13:00N 30°08' W 093°19'0 0.0
2017-Nov-18 12:30N 30°08' W 093°19'0 0.0
2017-Nov-18 12:00N 30°08' W 093°19'0 0.0
2017-Nov-18 11:30N 30°08' W 093°19'0 0.0
2017-Nov-18 11:00N 30°08' W 093°19'0 0.0
2017-Nov-18 10:31N 30°08' W 093°19'0 0.0
2017-Nov-18 10:00N 30°08' W 093°19'0 0.0
2017-Nov-18 09:30N 30°08' W 093°19'0 0.0
2017-Nov-18 09:00N 30°08' W 093°19'0 0.0
2017-Nov-18 08:31N 30°08' W 093°19'0 0.0
2017-Nov-18 08:00N 30°08' W 093°19'0 0.0
2017-Nov-18 07:30N 30°08' W 093°19'0 0.0
2017-Nov-18 07:00N 30°08' W 093°19'0 0.0
2017-Nov-18 06:30N 30°08' W 093°19'0 0.0
2017-Nov-18 06:01N 30°08' W 093°19'0 0.0
2017-Nov-18 05:30N 30°08' W 093°19'0 0.0
2017-Nov-18 05:00N 30°08' W 093°19'0 0.0
2017-Nov-18 04:30N 30°08' W 093°19'0 0.0
2017-Nov-18 04:01N 30°08' W 093°19'0 0.0
2017-Nov-18 03:30N 30°08' W 093°19'0 0.0
2017-Nov-18 03:01N 30°08' W 093°19'0 0.0
2017-Nov-18 02:30N 30°08' W 093°19'0 0.0
2017-Nov-18 02:00N 30°08' W 093°19'0 0.0
2017-Nov-18 01:30N 30°08' W 093°19'0 0.0
2017-Nov-18 01:00N 30°08' W 093°19'0 0.0
2017-Nov-18 00:30N 30°08' W 093°19'0 0.0
2017-Nov-18 00:01N 30°08' W 093°19'0 0.0
2017-Nov-17 23:30N 30°08' W 093°19'0 0.0
2017-Nov-17 23:00N 30°08' W 093°19'0 0.0
2017-Nov-17 22:31N 30°08' W 093°19'0 0.0
2017-Nov-17 22:01N 30°08' W 093°19'0 0.0
2017-Nov-17 21:30N 30°08' W 093°19'0 0.0
2017-Nov-17 21:00N 30°08' W 093°19'0 0.0
2017-Nov-17 20:30N 30°08' W 093°19'0 0.0
2017-Nov-17 20:00N 30°08' W 093°19'0 0.0
2017-Nov-17 19:30N 30°08' W 093°19'0 0.0
2017-Nov-17 19:01N 30°08' W 093°19'0 0.0
2017-Nov-17 18:30N 30°08' W 093°19'0 0.0
2017-Nov-17 18:01N 30°08' W 093°19'0 0.0
2017-Nov-17 17:30N 30°08' W 093°19'0 0.0
2017-Nov-17 17:01N 30°08' W 093°19'0 0.0
2017-Nov-17 16:31N 30°08' W 093°19'0 0.0
2017-Nov-17 16:00N 30°08' W 093°19'1 1.6
2017-Nov-17 15:30N 30°09' W 093°20'0 0.2
2017-Nov-17 15:01N 30°09' W 093°20'0 0.1
2017-Nov-17 14:31N 30°09' W 093°20'2 4.5
2017-Nov-17 14:01N 30°11' W 093°19'3 5.4
2017-Nov-17 13:30N 30°12' W 093°16'0 0.0
2017-Nov-17 13:00N 30°12' W 093°16'0 0.0
2017-Nov-17 12:30N 30°12' W 093°16'0 0.0
2017-Nov-17 12:01N 30°12' W 093°16'0 0.0
2017-Nov-17 11:31N 30°12' W 093°16'0 0.0
2017-Nov-17 11:00N 30°12' W 093°16'0 0.0
2017-Nov-17 10:30N 30°12' W 093°16'0 0.0
2017-Nov-17 10:00N 30°12' W 093°16'0 0.0
2017-Nov-17 09:30N 30°12' W 093°16'0 0.0
2017-Nov-17 09:00N 30°12' W 093°16'0 0.0
2017-Nov-17 08:30N 30°12' W 093°16'0 0.0
2017-Nov-17 08:00N 30°12' W 093°16'0 0.0
2017-Nov-17 07:30N 30°12' W 093°16'0 0.0
2017-Nov-17 07:00N 30°12' W 093°16'0 0.0
2017-Nov-17 06:30N 30°12' W 093°16'0 0.0
2017-Nov-17 06:00N 30°12' W 093°16'0 0.0
2017-Nov-17 05:30N 30°12' W 093°16'0 0.0
2017-Nov-17 05:00N 30°12' W 093°16'0 0.0
2017-Nov-17 04:30N 30°12' W 093°16'0 0.0
2017-Nov-17 04:00N 30°12' W 093°16'0 0.0
2017-Nov-17 03:30N 30°12' W 093°16'0 0.0
2017-Nov-17 03:00N 30°12' W 093°16'0 0.0
2017-Nov-17 02:31N 30°12' W 093°16'0 0.0
2017-Nov-17 02:00N 30°12' W 093°16'0 0.0
2017-Nov-17 01:30N 30°12' W 093°16'0 0.0
2017-Nov-17 01:00N 30°12' W 093°16'0 0.0
2017-Nov-17 00:31N 30°12' W 093°16'0 0.0
2017-Nov-17 00:01N 30°12' W 093°16'0 0.0
2017-Nov-16 23:30N 30°12' W 093°16'0 0.0
2017-Nov-16 23:00N 30°12' W 093°16'0 0.0
2017-Nov-16 22:30N 30°12' W 093°16'0 0.0
2017-Nov-16 22:00N 30°12' W 093°16'0 0.0
2017-Nov-16 21:30N 30°12' W 093°16'0 0.0
2017-Nov-16 21:01N 30°12' W 093°16'0 0.0
2017-Nov-16 20:30N 30°12' W 093°16'0 0.0
2017-Nov-16 20:01N 30°12' W 093°16'0 0.0
2017-Nov-16 19:30N 30°12' W 093°16'0 0.0
2017-Nov-16 19:01N 30°12' W 093°16'0 0.0
2017-Nov-16 18:30N 30°12' W 093°16'0 0.0
2017-Nov-16 18:00N 30°12' W 093°16'0 0.0
2017-Nov-16 17:31N 30°12' W 093°16'0 0.0
2017-Nov-16 17:00N 30°12' W 093°16'0 0.0
2017-Nov-16 16:30N 30°12' W 093°16'0 0.0
2017-Nov-16 16:00N 30°12' W 093°16'0 0.0
2017-Nov-16 15:30N 30°12' W 093°16'0 0.0
2017-Nov-16 15:00N 30°12' W 093°16'0 0.0
2017-Nov-16 14:30N 30°12' W 093°16'0 0.0
2017-Nov-16 14:00N 30°12' W 093°16'0 0.0
2017-Nov-16 13:30N 30°12' W 093°16'0 0.0
2017-Nov-16 13:00N 30°12' W 093°16'0 0.0
2017-Nov-16 12:30N 30°12' W 093°16'0 0.0
2017-Nov-16 12:00N 30°12' W 093°16'0 0.0
2017-Nov-16 11:30N 30°12' W 093°16'0 0.0
2017-Nov-16 11:00N 30°12' W 093°16'0 0.0
2017-Nov-16 10:30N 30°12' W 093°16'0 0.0
2017-Nov-16 10:00N 30°12' W 093°16'0 0.0
2017-Nov-16 09:30N 30°12' W 093°16'0 0.0
2017-Nov-16 09:00N 30°12' W 093°16'0 0.0
2017-Nov-16 08:30N 30°12' W 093°16'0 0.0
2017-Nov-16 08:00N 30°12' W 093°16'0 0.0
2017-Nov-16 07:30N 30°12' W 093°16'0 0.0
2017-Nov-16 07:00N 30°12' W 093°16'0 0.0
2017-Nov-16 06:30N 30°12' W 093°16'0 0.0
2017-Nov-16 06:00N 30°12' W 093°16'0 0.0
2017-Nov-16 05:30N 30°12' W 093°16'0 0.0
2017-Nov-16 05:00N 30°12' W 093°16'0 0.0
2017-Nov-16 04:30N 30°12' W 093°16'0 0.0
2017-Nov-16 04:00N 30°12' W 093°16'0 0.0
2017-Nov-16 03:30N 30°12' W 093°16'0 0.0
2017-Nov-16 03:00N 30°12' W 093°16'0 0.0
2017-Nov-16 02:30N 30°12' W 093°16'0 0.0
2017-Nov-16 02:00N 30°12' W 093°16'0 0.0
2017-Nov-16 01:31N 30°12' W 093°16'0 0.0
2017-Nov-16 01:00N 30°12' W 093°16'0 0.0
2017-Nov-16 00:30N 30°12' W 093°16'0 0.0
2017-Nov-16 00:00N 30°12' W 093°16'0 0.0
2017-Nov-15 23:31N 30°12' W 093°16'0 0.0
2017-Nov-15 23:01N 30°12' W 093°16'0 0.0
2017-Nov-15 22:30N 30°12' W 093°16'0 0.0
2017-Nov-15 22:01N 30°12' W 093°16'0 0.0
2017-Nov-15 21:30N 30°12' W 093°16'0 0.0
2017-Nov-15 21:01N 30°12' W 093°16'3 6.2
2017-Nov-15 20:31N 30°10' W 093°19'4 7.0
2017-Nov-15 20:00N 30°07' W 093°20'3 5.7
2017-Nov-15 19:31N 30°04' W 093°21'3 5.3
2017-Nov-15 19:00N 30°04' W 093°24'3 6.2
2017-Nov-15 18:30N 30°04' W 093°27'3 6.3
2017-Nov-15 18:00N 30°04' W 093°31'3 6.4
2017-Nov-15 17:30N 30°04' W 093°35'3 6.3
2017-Nov-15 17:00N 30°04' W 093°38'5 6.2
2017-Nov-15 16:16N 30°03' W 093°43'3 6.8
2017-Nov-15 15:50N 30°01' W 093°46'6 7.1
2017-Nov-15 15:00N 29°58' W 093°51'60 5.3
2017-Nov-15 03:48N 29°30' W 094°52'2 8.0
2017-Nov-15 03:30N 29°32' W 094°54'4 7.7
2017-Nov-15 03:00N 29°35' W 094°56'4 7.7
2017-Nov-15 02:30N 29°38' W 094°58'4 7.6
2017-Nov-15 02:00N 29°42' W 094°60'3 6.2
2017-Nov-15 01:29N 29°44' W 095°03'0 0.0
2017-Nov-14 05:06N 29°44' W 095°03'0 0.0
2017-Nov-14 05:00N 29°44' W 095°03'0 0.5
2017-Nov-14 04:30N 29°44' W 095°03'0 0.4
2017-Nov-14 04:00N 29°44' W 095°03'0 0.0
2017-Nov-14 03:30N 29°44' W 095°03'0 0.0
2017-Nov-14 03:00N 29°44' W 095°03'0 0.0
2017-Nov-14 02:31N 29°44' W 095°03'0 0.0
2017-Nov-14 02:00N 29°44' W 095°03'0 0.0
2017-Nov-14 01:30N 29°44' W 095°03'0 0.0
2017-Nov-14 01:00N 29°44' W 095°03'0 0.0
2017-Nov-14 00:30N 29°44' W 095°03'1 1.9
2017-Nov-13 23:48N 29°44' W 095°01'1 4.4
2017-Nov-13 23:30N 29°42' W 095°01'1 2.8
2017-Nov-13 23:00N 29°43' W 095°03'1 2.1
2017-Nov-13 22:23N 29°42' W 095°01'2 6.1
2017-Nov-13 22:00N 29°44' W 095°03'  
2017-Nov-10 16:30N 30°12' W 093°16'0 0.0
2017-Nov-10 16:00N 30°12' W 093°16'0 0.0
2017-Nov-10 15:30N 30°12' W 093°16'0 0.0
2017-Nov-10 15:00N 30°12' W 093°16'0 0.0
2017-Nov-10 14:29N 30°12' W 093°16'0 0.0
2017-Nov-10 14:00N 30°12' W 093°16'0 0.0
2017-Nov-10 13:30N 30°12' W 093°16'0 0.0
2017-Nov-10 13:00N 30°12' W 093°16'0 0.0
2017-Nov-10 12:30N 30°12' W 093°16'0 0.0
2017-Nov-10 12:01N 30°12' W 093°16'0 0.0
2017-Nov-10 11:30N 30°12' W 093°16'0 0.0
2017-Nov-10 11:00N 30°12' W 093°16'0 0.0
2017-Nov-10 10:30N 30°12' W 093°16'0 0.0
2017-Nov-10 10:00N 30°12' W 093°16'0 0.0
2017-Nov-10 09:30N 30°12' W 093°16'0 0.0
2017-Nov-10 09:00N 30°12' W 093°16'0 0.0
2017-Nov-10 08:30N 30°12' W 093°16'0 0.0
2017-Nov-10 08:00N 30°12' W 093°16'0 0.0
2017-Nov-10 07:30N 30°12' W 093°16'0 0.0
2017-Nov-10 07:00N 30°12' W 093°16'0 0.0
2017-Nov-10 06:31N 30°12' W 093°16'0 0.0
2017-Nov-10 06:00N 30°12' W 093°16'0 0.0
2017-Nov-10 05:30N 30°12' W 093°16'0 0.0
2017-Nov-10 05:00N 30°12' W 093°16'0 0.0
2017-Nov-10 04:31N 30°12' W 093°16'0 0.0
2017-Nov-10 04:00N 30°12' W 093°16'0 0.0
2017-Nov-10 03:31N 30°12' W 093°16'0 0.0
2017-Nov-10 03:00N 30°12' W 093°16'0 0.0
2017-Nov-10 02:31N 30°12' W 093°16'0 0.0
2017-Nov-10 02:00N 30°12' W 093°16'0 0.0
2017-Nov-10 01:30N 30°12' W 093°16'0 0.0
2017-Nov-10 01:00N 30°12' W 093°16'0 0.0
2017-Nov-10 00:30N 30°12' W 093°16'0 0.0
2017-Nov-10 00:00N 30°12' W 093°16'0 0.0
2017-Nov-09 23:31N 30°12' W 093°16'0 0.0
2017-Nov-09 23:00N 30°12' W 093°16'0 0.0
2017-Nov-09 22:30N 30°12' W 093°16'0 0.0
2017-Nov-09 22:00N 30°12' W 093°16'0 0.0
2017-Nov-09 21:30N 30°12' W 093°16'0 0.0
2017-Nov-09 21:00N 30°12' W 093°16'0 0.0
2017-Nov-09 20:31N 30°12' W 093°16'0 0.0
2017-Nov-09 20:00N 30°12' W 093°16'0 0.0
2017-Nov-09 19:30N 30°12' W 093°16'0 0.0
2017-Nov-09 19:00N 30°12' W 093°16'0 0.0
2017-Nov-09 18:31N 30°12' W 093°16'0 0.0
2017-Nov-09 18:00N 30°12' W 093°16'  

Dump ship's entire track history